Time;durP1;ratioP1;P1;durP2;ratioP2;P2;SDS_P1;SDS_P2;PMS_P1;PMS_P2;Temp;Humidity;BMP_temperature;BMP_pressure;BME280_temperature;BME280_humidity;BME280_pressure;Samples;Min_cycle;Max_cycle;Signal;HPM_P1;HPM_P2
2022/01/05 00:01:35;;;;;;;9.43;1.90;;;7.80;71.30;;;;;;5056367;28;20031;-72
2022/01/05 00:04:01;;;;;;;9.18;2.10;;;7.80;71.20;;;;;;5077410;28;20032;-73
2022/01/05 00:06:26;;;;;;;7.13;1.90;;;7.80;71.20;;;;;;5076894;28;20104;-73
2022/01/05 00:08:55;;;;;;;6.68;1.80;;;7.80;71.10;;;;;;5058284;28;20457;-73
2022/01/05 00:11:22;;;;;;;7.93;2.13;;;7.70;71.00;;;;;;5075195;28;20051;-73
2022/01/05 00:13:49;;;;;;;10.73;2.42;;;7.70;70.90;;;;;;5052481;28;20063;-73
2022/01/05 00:16:14;;;;;;;9.70;2.00;;;7.70;70.90;;;;;;5074230;28;20074;-73
2022/01/05 00:18:40;;;;;;;9.48;2.30;;;7.70;70.90;;;;;;5073751;28;20029;-73
2022/01/05 00:21:06;;;;;;;11.00;2.10;;;7.60;70.90;;;;;;5057151;28;20028;-73
2022/01/05 00:23:31;;;;;;;9.05;2.13;;;7.60;70.80;;;;;;5057198;28;20043;-73
2022/01/05 00:25:59;;;;;;;14.03;2.43;;;7.60;70.80;;;;;;5070873;28;20036;-73
2022/01/05 00:28:25;;;;;;;9.68;3.03;;;7.50;70.80;;;;;;5058970;28;20437;-73
2022/01/05 00:30:50;;;;;;;10.40;2.47;;;7.50;71.50;;;;;;5073523;28;20035;-73
2022/01/05 00:33:17;;;;;;;6.30;1.75;;;7.50;70.90;;;;;;5073763;28;20056;-73
2022/01/05 00:35:42;;;;;;;7.90;2.20;;;7.40;71.50;;;;;;5073044;28;20122;-73
2022/01/05 00:38:08;;;;;;;7.43;1.70;;;7.40;70.90;;;;;;5057098;28;20139;-73
2022/01/05 00:40:33;;;;;;;8.90;1.75;;;7.40;71.00;;;;;;5073310;28;20029;-73
2022/01/05 00:42:59;;;;;;;8.90;2.03;;;7.30;71.00;;;;;;5074625;28;20154;-73
2022/01/05 00:45:25;;;;;;;9.65;1.95;;;7.30;71.00;;;;;;5056217;28;20032;-73
2022/01/05 00:47:51;;;;;;;7.77;2.17;;;7.30;71.10;;;;;;5075255;28;20338;-73
2022/01/05 00:50:16;;;;;;;7.78;1.70;;;7.30;71.10;;;;;;5075588;28;20051;-73
2022/01/05 00:52:42;;;;;;;7.47;1.88;;;7.30;71.20;;;;;;5073695;28;20131;-73
2022/01/05 00:55:07;;;;;;;13.82;2.33;;;7.30;71.20;;;;;;5074925;28;20035;-73
2022/01/05 00:57:33;;;;;;;7.27;1.93;;;7.20;71.10;;;;;;5056943;28;20098;-73
2022/01/05 00:59:58;;;;;;;8.50;2.05;;;7.20;71.20;;;;;;5074443;28;20033;-73
2022/01/05 01:02:24;;;;;;;10.70;2.43;;;7.20;71.20;;;;;;5052773;28;20067;-73
2022/01/05 01:04:50;;;;;;;13.57;2.57;;;7.20;71.20;;;;;;5060233;28;20032;-73
2022/01/05 01:07:15;;;;;;;12.27;2.83;;;7.20;71.20;;;;;;5074392;28;20086;-73
2022/01/05 01:09:41;;;;;;;10.68;2.72;;;7.20;71.10;;;;;;5072332;28;20052;-73
2022/01/05 01:12:07;;;;;;;8.43;2.50;;;7.20;71.10;;;;;;5073124;28;20115;-73
2022/01/05 01:14:33;;;;;;;10.85;2.35;;;7.20;71.10;;;;;;5072356;28;20040;-73
2022/01/05 01:16:58;;;;;;;8.97;2.80;;;7.20;71.20;;;;;;5052924;28;20033;-73
2022/01/05 01:19:24;;;;;;;9.20;1.97;;;7.20;71.10;;;;;;5053385;28;20033;-73
2022/01/05 01:21:50;;;;;;;9.07;2.30;;;7.20;71.10;;;;;;5072348;28;20029;-73
2022/01/05 01:24:15;;;;;;;11.13;2.72;;;7.20;70.90;;;;;;5073547;28;20460;-73
2022/01/05 01:26:41;;;;;;;9.43;1.90;;;7.20;70.80;;;;;;5073785;28;20033;-73
2022/01/05 01:29:07;;;;;;;9.93;2.07;;;7.20;70.80;;;;;;5073350;28;20457;-73
2022/01/05 01:31:33;;;;;;;12.13;2.08;;;7.10;70.70;;;;;;5072205;28;20028;-73
2022/01/05 01:33:58;;;;;;;10.95;2.38;;;7.20;70.60;;;;;;5072978;28;20053;-73
2022/01/05 01:36:24;;;;;;;9.00;2.20;;;7.10;70.50;;;;;;5054458;28;20021;-73
2022/01/05 01:38:50;;;;;;;11.02;1.98;;;7.10;70.40;;;;;;5077058;28;20514;-73
2022/01/05 01:41:15;;;;;;;7.45;2.03;;;7.10;70.30;;;;;;5060207;28;20028;-73
2022/01/05 01:43:41;;;;;;;11.17;2.50;;;7.10;70.20;;;;;;5077090;28;20123;-73
2022/01/05 01:46:08;;;;;;;6.57;1.90;;;7.10;70.20;;;;;;5079661;28;20063;-73
2022/01/05 01:48:34;;;;;;;9.40;2.00;;;7.10;70.30;;;;;;5087928;28;20445;-73
2022/01/05 01:50:59;;;;;;;7.80;2.10;;;7.10;70.30;;;;;;5064918;28;20029;-73
2022/01/05 01:53:25;;;;;;;13.20;2.43;;;7.10;70.20;;;;;;5079402;28;20402;-73
2022/01/05 01:55:51;;;;;;;8.73;2.47;;;7.10;70.10;;;;;;5076669;28;20020;-73
2022/01/05 01:58:24;;;;;;;7.83;1.87;;;7.10;70.00;;;;;;5060070;28;20055;-74
2022/01/05 02:00:50;;;;;;;11.25;2.13;;;7.20;70.00;;;;;;5067829;28;20047;-73
2022/01/05 02:03:16;;;;;;;6.40;2.00;;;7.10;69.90;;;;;;5077592;28;20028;-74
2022/01/05 02:05:42;;;;;;;10.17;2.40;;;7.10;69.90;;;;;;5076841;28;20029;-73
2022/01/05 02:08:08;;;;;;;11.70;2.30;;;7.10;69.80;;;;;;5059603;28;20055;-73
2022/01/05 02:10:33;;;;;;;9.87;1.70;;;7.10;69.90;;;;;;5076341;28;20327;-74
2022/01/05 02:12:59;;;;;;;7.57;1.90;;;7.10;69.90;;;;;;5076743;28;20039;-73
2022/01/05 02:15:25;;;;;;;9.60;2.20;;;7.00;69.90;;;;;;5077376;28;20024;-73
2022/01/05 02:18:09;;;;;;;9.03;1.67;;;7.00;70.00;;;;;;5076617;28;20028;-73
2022/01/05 02:20:35;;;;;;;12.77;2.50;;;7.00;70.00;;;;;;5058976;28;20028;-74
2022/01/05 02:23:00;;;;;;;6.80;2.00;;;7.00;70.00;;;;;;5077038;28;20016;-74
2022/01/05 02:25:27;;;;;;;10.40;2.83;;;7.00;70.00;;;;;;5076988;28;20024;-73
2022/01/05 02:27:55;;;;;;;8.13;2.10;;;7.00;70.00;;;;;;5075605;28;20082;-73
2022/01/05 02:30:23;;;;;;;7.37;2.33;;;7.00;70.00;;;;;;5076006;28;20032;-74
2022/01/05 02:32:50;;;;;;;10.13;2.40;;;7.00;69.90;;;;;;5076313;28;20080;-74
2022/01/05 02:35:15;;;;;;;9.53;2.20;;;6.90;69.90;;;;;;5076300;28;20460;-74
2022/01/05 02:37:46;;;;;;;11.50;2.37;;;6.90;69.90;;;;;;5075757;28;20028;-74
2022/01/05 02:40:15;;;;;;;13.13;2.87;;;6.90;69.80;;;;;;5075411;28;20024;-74
2022/01/05 02:42:42;;;;;;;11.32;2.03;;;6.90;69.80;;;;;;5074811;28;20286;-74
2022/01/05 02:45:09;;;;;;;12.57;2.83;;;6.90;69.80;;;;;;5076126;28;20059;-74
2022/01/05 02:47:35;;;;;;;10.83;2.37;;;6.90;69.80;;;;;;5076718;28;20043;-73
2022/01/05 02:50:03;;;;;;;9.67;2.60;;;6.80;69.70;;;;;;5077961;28;20590;-73
2022/01/05 02:52:28;;;;;;;10.87;2.63;;;6.90;69.70;;;;;;5062259;28;20136;-73
2022/01/05 02:54:54;;;;;;;8.83;2.30;;;6.90;69.70;;;;;;5076011;28;20024;-73
2022/01/05 02:57:19;;;;;;;10.93;2.20;;;6.90;69.60;;;;;;5076425;28;20028;-73
2022/01/05 02:59:45;;;;;;;7.57;1.47;;;6.80;69.50;;;;;;5076297;28;20050;-75
2022/01/05 03:02:11;;;;;;;10.67;2.73;;;6.80;69.40;;;;;;5075219;28;20083;-74
2022/01/05 03:04:36;;;;;;;11.83;2.93;;;6.80;69.40;;;;;;5076470;28;20043;-73
2022/01/05 03:07:02;;;;;;;9.13;2.20;;;6.80;69.30;;;;;;5074894;28;20033;-74
2022/01/05 03:09:28;;;;;;;9.93;2.50;;;6.80;69.30;;;;;;5075795;28;20397;-73
2022/01/05 03:11:54;;;;;;;12.67;2.63;;;6.80;69.20;;;;;;5076138;28;20060;-73
2022/01/05 03:14:20;;;;;;;11.27;2.07;;;6.80;69.10;;;;;;5076006;28;20028;-74
2022/01/05 03:16:46;;;;;;;10.00;2.37;;;6.80;69.00;;;;;;5074762;28;20361;-74
2022/01/05 03:19:12;;;;;;;10.23;2.17;;;6.80;69.00;;;;;;5076191;28;20024;-74
2022/01/05 03:21:37;;;;;;;9.13;2.23;;;6.80;69.00;;;;;;5058073;28;21906;-74
2022/01/05 03:24:03;;;;;;;7.23;2.03;;;6.70;68.80;;;;;;5076141;28;20035;-74
2022/01/05 03:26:29;;;;;;;9.40;2.00;;;6.80;68.80;;;;;;5074278;28;20031;-74
2022/01/05 03:28:55;;;;;;;11.07;2.57;;;6.70;68.70;;;;;;5074988;28;20021;-74
2022/01/05 03:31:20;;;;;;;10.43;2.60;;;6.70;68.60;;;;;;5075906;28;20044;-74
2022/01/05 03:33:46;;;;;;;12.60;3.40;;;6.70;68.50;;;;;;5074193;28;20072;-73
2022/01/05 03:36:12;;;;;;;10.73;2.27;;;6.80;68.40;;;;;;5073696;28;20721;-74
2022/01/05 03:38:37;;;;;;;9.10;2.10;;;6.80;68.30;;;;;;5075400;28;20028;-74
2022/01/05 03:41:03;;;;;;;9.17;2.10;;;6.80;68.20;;;;;;5075312;28;20082;-73
2022/01/05 03:43:28;;;;;;;11.10;2.40;;;6.80;68.10;;;;;;5074528;28;20063;-74
2022/01/05 03:45:55;;;;;;;9.57;1.90;;;6.70;68.00;;;;;;5075367;28;20106;-74
2022/01/05 03:48:21;;;;;;;10.93;2.53;;;6.70;68.00;;;;;;5075034;28;20024;-74
2022/01/05 03:50:47;;;;;;;9.63;1.80;;;6.70;68.00;;;;;;5074521;28;20032;-74
2022/01/05 03:53:13;;;;;;;7.33;2.03;;;6.70;68.00;;;;;;5074806;28;20039;-74
2022/01/05 03:55:41;;;;;;;10.70;2.47;;;6.70;68.00;;;;;;5073572;28;20349;-73
2022/01/05 03:58:07;;;;;;;12.60;2.50;;;6.70;68.00;;;;;;5057560;28;20060;-74
2022/01/05 04:00:36;;;;;;;11.43;1.90;;;6.70;67.90;;;;;;5073351;28;20396;-74
2022/01/05 04:03:02;;;;;;;9.27;1.70;;;6.70;68.00;;;;;;5074093;28;20037;-74
2022/01/05 04:05:28;;;;;;;10.23;2.50;;;6.70;68.00;;;;;;5073841;28;20052;-74
2022/01/05 04:07:55;;;;;;;13.50;2.97;;;6.70;68.00;;;;;;5056773;28;20020;-74
2022/01/05 04:10:20;;;;;;;10.30;2.43;;;6.70;68.00;;;;;;5073839;28;20060;-74
2022/01/05 04:12:47;;;;;;;7.67;2.07;;;6.70;67.90;;;;;;5073462;28;20070;-74
2022/01/05 04:15:14;;;;;;;13.23;2.10;;;6.60;67.90;;;;;;5057141;28;20115;-74
2022/01/05 04:17:39;;;;;;;8.33;2.40;;;6.70;67.90;;;;;;5073366;28;20422;-74
2022/01/05 04:20:06;;;;;;;13.80;2.73;;;6.70;67.90;;;;;;5057495;28;20060;-74
2022/01/05 04:22:31;;;;;;;6.33;2.27;;;6.70;67.90;;;;;;5055357;28;20029;-74
2022/01/05 04:24:57;;;;;;;14.60;2.40;;;6.70;67.90;;;;;;5074535;28;20028;-74
2022/01/05 04:27:23;;;;;;;9.73;2.63;;;6.70;67.80;;;;;;5074405;28;20094;-74
2022/01/05 04:29:49;;;;;;;14.83;2.60;;;6.70;67.90;;;;;;5073354;28;20107;-74
2022/01/05 04:32:15;;;;;;;8.37;2.93;;;6.70;67.80;;;;;;5074207;28;20442;-74
2022/01/05 04:34:41;;;;;;;11.50;2.57;;;6.70;67.80;;;;;;5056490;28;20024;-74
2022/01/05 04:37:07;;;;;;;10.90;2.03;;;6.60;67.80;;;;;;5073654;28;20515;-74
2022/01/05 04:39:33;;;;;;;8.97;1.97;;;6.60;67.80;;;;;;5073456;28;20060;-74
2022/01/05 04:41:59;;;;;;;10.27;2.33;;;6.60;67.90;;;;;;5056598;28;20436;-74
2022/01/05 04:44:25;;;;;;;14.38;2.17;;;6.60;68.00;;;;;;5073778;28;20060;-74
2022/01/05 04:46:50;;;;;;;11.90;2.23;;;6.60;68.00;;;;;;5056444;28;20028;-74
2022/01/05 04:49:16;;;;;;;11.43;2.20;;;6.60;68.00;;;;;;5072758;28;20408;-74
2022/01/05 04:51:41;;;;;;;10.47;2.43;;;6.60;68.00;;;;;;5073150;28;20029;-74
2022/01/05 04:54:07;;;;;;;8.83;2.17;;;6.60;68.10;;;;;;5080529;28;20025;-74
2022/01/05 04:56:33;;;;;;;9.43;2.00;;;6.60;68.20;;;;;;5073477;28;20024;-74
2022/01/05 04:58:59;;;;;;;10.13;2.07;;;6.50;68.20;;;;;;5072235;28;20029;-74
2022/01/05 05:01:24;;;;;;;8.10;1.83;;;6.60;68.30;;;;;;5071230;28;20028;-74
2022/01/05 05:03:50;;;;;;;12.33;2.73;;;6.60;69.00;;;;;;5073226;28;20028;-74
2022/01/05 05:06:16;;;;;;;9.50;2.57;;;6.50;68.40;;;;;;5055847;28;20043;-74
2022/01/05 05:08:42;;;;;;;10.57;2.07;;;6.50;68.40;;;;;;5073987;28;20033;-74
2022/01/05 05:11:08;;;;;;;11.17;1.93;;;6.60;68.50;;;;;;5072703;28;20431;-74
2022/01/05 05:13:34;;;;;;;10.17;2.53;;;6.50;68.60;;;;;;5056190;28;20453;-74
2022/01/05 05:15:59;;;;;;;11.23;3.03;;;6.60;68.70;;;;;;5051876;28;20032;-74
2022/01/05 05:18:25;;;;;;;8.87;2.33;;;6.60;68.70;;;;;;5048520;28;20442;-75
2022/01/05 05:20:51;;;;;;;11.73;2.53;;;6.60;68.70;;;;;;5063519;28;20111;-76
2022/01/05 05:23:17;;;;;;;9.73;2.13;;;6.60;68.70;;;;;;5063304;28;20085;-76
2022/01/05 05:25:47;;;;;;;16.33;3.03;;;6.60;68.70;;;;;;5055239;28;20116;-77
2022/01/05 05:28:13;;;;;;;11.97;2.10;;;6.60;68.70;;;;;;5068981;28;20668;-74
2022/01/05 05:30:38;;;;;;;10.43;2.57;;;6.60;68.70;;;;;;5056625;28;20370;-74
2022/01/05 05:33:04;;;;;;;13.00;2.77;;;6.60;68.80;;;;;;5051612;28;20320;-74
2022/01/05 05:35:30;;;;;;;13.07;2.93;;;6.60;68.80;;;;;;5071147;28;20021;-74
2022/01/05 05:37:56;;;;;;;12.77;2.80;;;6.70;68.80;;;;;;5072614;28;20025;-74
2022/01/05 05:40:22;;;;;;;12.00;2.47;;;6.70;68.80;;;;;;5073689;28;20358;-75
2022/01/05 05:42:49;;;;;;;12.20;3.00;;;6.70;68.90;;;;;;5055180;28;20057;-75
2022/01/05 05:45:15;;;;;;;13.07;2.83;;;6.70;69.00;;;;;;5072707;28;20118;-74
2022/01/05 05:47:40;;;;;;;11.73;2.40;;;6.60;69.00;;;;;;5071293;28;20419;-75
2022/01/05 05:50:07;;;;;;;10.23;2.70;;;6.70;69.20;;;;;;5072943;28;20144;-75
2022/01/05 05:52:33;;;;;;;8.77;2.73;;;6.70;69.30;;;;;;5071838;28;20059;-75
2022/01/05 05:54:58;;;;;;;9.27;3.23;;;6.70;69.30;;;;;;5071057;28;20090;-74
2022/01/05 05:57:24;;;;;;;10.37;2.50;;;6.70;69.30;;;;;;5071789;28;20028;-74
2022/01/05 05:59:49;;;;;;;15.20;3.10;;;6.70;69.30;;;;;;5072555;28;20462;-74
2022/01/05 06:02:15;;;;;;;8.53;2.30;;;6.70;69.40;;;;;;5072431;28;20037;-74
2022/01/05 06:04:41;;;;;;;13.83;3.20;;;6.70;69.50;;;;;;5074134;28;20035;-74
2022/01/05 06:07:06;;;;;;;10.53;2.43;;;6.70;69.60;;;;;;5071823;28;20020;-74
2022/01/05 06:09:32;;;;;;;12.43;3.27;;;6.80;69.70;;;;;;5072645;28;20417;-74
2022/01/05 06:11:57;;;;;;;12.85;3.13;;;6.70;69.70;;;;;;5071999;28;20115;-74
2022/01/05 06:14:23;;;;;;;8.03;2.30;;;6.80;69.90;;;;;;5072946;28;20028;-74
2022/01/05 06:16:48;;;;;;;13.70;2.70;;;6.80;69.90;;;;;;5073113;28;20350;-74
2022/01/05 06:19:14;;;;;;;12.43;2.90;;;6.80;69.90;;;;;;5076268;28;20020;-74
2022/01/05 06:21:40;;;;;;;10.57;2.13;;;6.80;70.00;;;;;;5059322;28;20495;-74
2022/01/05 06:24:05;;;;;;;12.40;3.17;;;6.90;70.10;;;;;;5056271;28;20366;-74
2022/01/05 06:26:31;;;;;;;14.57;2.70;;;6.90;70.10;;;;;;5066811;28;20059;-74
2022/01/05 06:28:57;;;;;;;9.33;2.77;;;6.90;70.10;;;;;;5059738;28;20036;-74
2022/01/05 06:31:23;;;;;;;11.73;2.67;;;6.90;70.20;;;;;;5075733;28;20087;-74
2022/01/05 06:33:48;;;;;;;20.40;2.90;;;6.90;70.10;;;;;;5075985;28;20037;-74
2022/01/05 06:36:14;;;;;;;9.03;2.63;;;6.90;70.10;;;;;;5075724;28;20044;-74
2022/01/05 06:38:39;;;;;;;11.77;2.73;;;7.00;70.10;;;;;;5077332;28;20036;-72
2022/01/05 06:41:05;;;;;;;16.50;2.80;;;7.00;70.80;;;;;;5056875;28;20093;-73
2022/01/05 06:43:31;;;;;;;13.53;2.40;;;7.00;70.20;;;;;;5075289;28;20028;-74
2022/01/05 06:45:58;;;;;;;11.03;2.70;;;7.10;70.20;;;;;;5076446;28;20086;-74
2022/01/05 06:48:24;;;;;;;15.37;3.27;;;7.10;70.10;;;;;;5080715;28;20036;-74
2022/01/05 06:50:49;;;;;;;11.82;2.70;;;7.10;70.10;;;;;;5072237;28;20429;-74
2022/01/05 06:53:15;;;;;;;10.90;2.83;;;7.00;70.10;;;;;;5058341;28;20029;-74
2022/01/05 06:55:41;;;;;;;7.60;2.17;;;7.00;70.30;;;;;;5075529;28;20033;-74
2022/01/05 06:58:07;;;;;;;11.37;2.87;;;7.00;70.30;;;;;;5057866;28;20472;-73
2022/01/05 07:00:33;;;;;;;10.80;2.10;;;7.00;70.20;;;;;;5074256;28;20094;-75
2022/01/05 07:02:58;;;;;;;9.63;2.20;;;7.00;70.30;;;;;;5057457;28;20107;-76
2022/01/05 07:05:24;;;;;;;9.83;2.40;;;7.00;70.30;;;;;;5073711;28;20108;-74
2022/01/05 07:07:50;;;;;;;12.00;2.23;;;7.10;70.40;;;;;;5075337;28;20073;-73
2022/01/05 07:10:17;;;;;;;13.73;2.70;;;7.10;71.00;;;;;;5075777;28;20465;-77
2022/01/05 07:12:43;;;;;;;15.37;3.70;;;7.10;70.40;;;;;;5057756;28;20047;-75
2022/01/05 07:15:12;;;;;;;12.17;2.40;;;7.00;70.50;;;;;;5075953;28;20062;-72
2022/01/05 07:17:37;;;;;;;14.17;2.93;;;7.00;70.60;;;;;;5086012;28;20025;-75
2022/01/05 07:20:06;;;;;;;8.23;2.17;;;7.00;70.60;;;;;;5076811;28;20035;-74
2022/01/05 07:22:32;;;;;;;10.20;2.57;;;7.10;70.70;;;;;;5070635;28;20093;-75
2022/01/05 07:24:58;;;;;;;9.60;2.30;;;7.10;70.80;;;;;;5073488;28;20036;-75
2022/01/05 07:27:24;;;;;;;11.47;2.77;;;7.10;70.70;;;;;;5072588;28;20040;-75
2022/01/05 07:29:50;;;;;;;7.87;2.40;;;7.10;71.40;;;;;;5073348;28;20039;-75
2022/01/05 07:32:15;;;;;;;9.50;2.07;;;7.10;70.70;;;;;;5073910;28;20353;-75
2022/01/05 07:34:41;;;;;;;12.77;2.70;;;7.10;70.70;;;;;;5073634;28;20028;-74
2022/01/05 07:37:07;;;;;;;9.83;2.67;;;7.10;70.70;;;;;;5056252;28;20028;-74
2022/01/05 07:39:32;;;;;;;14.63;2.90;;;7.10;70.70;;;;;;5073613;28;20028;-76
2022/01/05 07:41:58;;;;;;;18.43;3.07;;;7.10;70.70;;;;;;5072877;28;20362;-76
2022/01/05 07:44:24;;;;;;;10.17;2.03;;;7.10;70.70;;;;;;5056242;28;20111;-75
2022/01/05 07:46:49;;;;;;;6.30;1.87;;;7.10;70.70;;;;;;5073805;28;20457;-75
2022/01/05 07:49:15;;;;;;;10.70;2.63;;;7.20;70.60;;;;;;5073098;28;20033;-75
2022/01/05 07:51:41;;;;;;;12.40;2.97;;;7.20;70.60;;;;;;5073091;28;20038;-75
2022/01/05 07:54:07;;;;;;;12.20;3.00;;;7.20;70.60;;;;;;5072415;28;20115;-75
2022/01/05 07:56:33;;;;;;;13.40;2.83;;;7.20;70.70;;;;;;5073614;28;20063;-75
2022/01/05 07:58:59;;;;;;;9.67;2.37;;;7.20;70.70;;;;;;5070531;28;20089;-75
2022/01/05 08:01:25;;;;;;;9.40;2.10;;;7.10;70.70;;;;;;5055640;28;20131;-76
2022/01/05 08:03:51;;;;;;;11.50;2.73;;;7.20;70.90;;;;;;5072537;28;20115;-73
2022/01/05 08:06:20;;;;;;;8.17;2.30;;;7.10;71.00;;;;;;5055421;28;20376;-77
2022/01/05 08:08:46;;;;;;;11.67;2.10;;;7.20;71.10;;;;;;5072997;28;20361;-74
2022/01/05 08:11:12;;;;;;;13.03;2.97;;;7.20;71.10;;;;;;5055585;28;20035;-74
2022/01/05 08:13:38;;;;;;;7.33;2.57;;;7.20;71.10;;;;;;5072335;28;20115;-75
2022/01/05 08:16:04;;;;;;;17.20;2.97;;;7.20;71.10;;;;;;5073829;28;20107;-75
2022/01/05 08:18:29;;;;;;;13.33;2.60;;;7.20;71.30;;;;;;5072323;28;20442;-75
2022/01/05 08:20:55;;;;;;;8.80;2.37;;;7.20;71.50;;;;;;5073794;28;20100;-74
2022/01/05 08:23:22;;;;;;;11.83;2.43;;;7.20;71.60;;;;;;5052470;28;20120;-74
2022/01/05 08:25:49;;;;;;;15.33;3.30;;;7.20;71.80;;;;;;5072122;28;20069;-75
2022/01/05 08:28:16;;;;;;;9.70;2.25;;;7.20;71.90;;;;;;5072025;28;20040;-75
2022/01/05 08:30:44;;;;;;;13.97;2.63;;;7.20;72.10;;;;;;5072296;28;20028;-74
2022/01/05 08:33:10;;;;;;;13.53;3.03;;;7.20;72.30;;;;;;5071731;28;20055;-74
2022/01/05 08:35:37;;;;;;;11.53;3.00;;;7.20;72.50;;;;;;5073253;28;20115;-74
2022/01/05 08:38:06;;;;;;;15.17;3.20;;;7.20;72.50;;;;;;5059207;28;20032;-76
2022/01/05 08:40:33;;;;;;;12.53;2.87;;;7.30;72.70;;;;;;5065767;28;20024;-76
2022/01/05 08:43:00;;;;;;;19.30;3.20;;;7.20;72.80;;;;;;5047096;28;20051;-74
2022/01/05 08:45:26;;;;;;;14.50;2.93;;;7.20;73.00;;;;;;5070259;28;20029;-73
2022/01/05 08:47:54;;;;;;;11.60;2.33;;;7.20;73.10;;;;;;5069392;28;20024;-74
2022/01/05 08:50:22;;;;;;;16.33;3.00;;;7.20;73.40;;;;;;5072886;28;20479;-74
2022/01/05 08:52:48;;;;;;;11.53;2.30;;;7.20;73.70;;;;;;5073227;28;20028;-74
2022/01/05 08:55:16;;;;;;;10.30;2.77;;;7.20;73.80;;;;;;5055386;28;20051;-74
2022/01/05 08:57:43;;;;;;;16.97;3.27;;;7.20;73.90;;;;;;5041290;28;20059;-73
2022/01/05 09:00:11;;;;;;;10.47;3.10;;;7.20;74.10;;;;;;5052597;28;20127;-73
2022/01/05 09:02:37;;;;;;;12.93;3.10;;;7.20;74.30;;;;;;5073011;28;20024;-73
2022/01/05 09:05:04;;;;;;;12.07;2.57;;;7.20;74.40;;;;;;5066375;28;20036;-71
2022/01/05 09:07:30;;;;;;;10.53;2.73;;;7.20;74.60;;;;;;5067884;28;20090;-73
2022/01/05 09:09:56;;;;;;;10.83;2.90;;;7.10;74.70;;;;;;5073053;28;20405;-73
2022/01/05 09:12:22;;;;;;;10.23;2.33;;;7.10;74.80;;;;;;5072274;28;20417;-73
2022/01/05 09:14:47;;;;;;;10.23;2.13;;;7.10;74.90;;;;;;5071624;28;20111;-71
2022/01/05 09:17:13;;;;;;;10.77;2.30;;;7.20;75.10;;;;;;5072902;28;20020;-70
2022/01/05 09:19:39;;;;;;;12.60;2.40;;;7.10;75.10;;;;;;5071545;28;20029;-71
2022/01/05 09:22:04;;;;;;;15.00;2.63;;;7.10;75.30;;;;;;5070886;28;20353;-71
2022/01/05 09:24:32;;;;;;;9.80;3.23;;;7.10;75.50;;;;;;5055054;28;20063;-71
2022/01/05 09:27:02;;;;;;;13.57;2.20;;;7.10;75.60;;;;;;5070992;28;20048;-70
2022/01/05 09:29:31;;;;;;;12.57;2.97;;;7.10;75.70;;;;;;5064044;28;20480;-71
2022/01/05 09:32:02;;;;;;;11.77;2.60;;;7.10;75.70;;;;;;5071423;28;20111;-71
2022/01/05 09:34:29;;;;;;;15.73;3.50;;;7.10;75.80;;;;;;5070903;28;20407;-71
2022/01/05 09:36:59;;;;;;;12.67;2.93;;;7.10;75.90;;;;;;5054095;28;20358;-71
2022/01/05 09:42:09;;;;;;;13.10;3.33;;;7.10;76.10;;;;;;5068808;28;20024;-70
2022/01/05 09:44:41;;;;;;;14.60;2.70;;;7.20;76.20;;;;;;5071771;28;20029;-71
2022/01/05 09:47:35;;;;;;;9.33;2.60;;;7.20;76.20;;;;;;5071949;28;20447;-69
2022/01/05 09:50:05;;;;;;;9.37;2.30;;;7.30;76.40;;;;;;5070851;28;20326;-71
2022/01/05 09:52:31;;;;;;;13.57;2.40;;;7.30;76.40;;;;;;5072028;28;20029;-70
2022/01/05 09:54:58;;;;;;;12.03;2.07;;;7.20;76.50;;;;;;5058208;28;20025;-69
2022/01/05 09:57:24;;;;;;;14.13;2.50;;;7.30;76.70;;;;;;5075503;28;20119;-70
2022/01/05 09:59:51;;;;;;;12.30;2.70;;;7.30;76.90;;;;;;5076034;28;20017;-71
2022/01/05 10:02:18;;;;;;;8.30;2.23;;;7.30;77.00;;;;;;5076301;28;20111;-70
2022/01/05 10:04:45;;;;;;;9.03;2.20;;;7.30;77.10;;;;;;5076313;28;20302;-71
2022/01/05 10:07:12;;;;;;;9.00;2.67;;;7.30;77.20;;;;;;5074750;28;20070;-70
2022/01/05 10:09:39;;;;;;;11.95;2.95;;;7.30;77.30;;;;;;5074368;28;20025;-70
2022/01/05 10:12:06;;;;;;;12.13;2.80;;;7.20;77.40;;;;;;5057801;28;20032;-70
2022/01/05 10:14:32;;;;;;;10.67;3.00;;;7.20;77.50;;;;;;5073968;28;20032;-71
2022/01/05 10:17:06;;;;;;;9.73;2.50;;;7.30;77.70;;;;;;5076433;28;20107;-71
2022/01/05 10:19:33;;;;;;;13.70;2.80;;;7.30;77.80;;;;;;5074666;28;20131;-70
2022/01/05 10:21:59;;;;;;;20.07;3.17;;;7.30;77.90;;;;;;5076110;28;20032;-71
2022/01/05 10:24:47;;;;;;;7.80;2.33;;;7.20;78.10;;;;;;5055881;28;20029;-71
2022/01/05 10:27:21;;;;;;;13.87;2.53;;;7.20;78.40;;;;;;5052046;28;20025;-69
2022/01/05 10:29:58;;;;;;;11.10;2.67;;;7.20;78.40;;;;;;5074174;28;20081;-70
2022/01/05 10:32:26;;;;;;;13.13;2.53;;;7.20;78.40;;;;;;5058053;28;20037;-70
2022/01/05 10:35:05;;;;;;;10.57;2.37;;;7.30;78.50;;;;;;5074610;28;20031;-70
2022/01/05 10:37:31;;;;;;;12.40;2.67;;;7.30;78.60;;;;;;5073341;28;20450;-71
2022/01/05 10:40:14;;;;;;;15.07;3.10;;;7.40;78.60;;;;;;5074193;28;20036;-72
2022/01/05 10:42:42;;;;;;;11.83;3.07;;;7.40;78.70;;;;;;5073362;28;20461;-72
2022/01/05 10:45:11;;;;;;;10.63;2.73;;;7.40;79.30;;;;;;5074761;28;20029;-72
2022/01/05 10:47:37;;;;;;;16.17;3.40;;;7.40;78.70;;;;;;5076117;28;20349;-72
2022/01/05 10:50:05;;;;;;;16.03;3.20;;;7.40;78.80;;;;;;5075952;28;20105;-72
2022/01/05 10:52:35;;;;;;;9.60;2.00;;;7.40;79.00;;;;;;5076009;28;20457;-73
2022/01/05 10:55:14;;;;;;;15.10;3.20;;;7.40;79.20;;;;;;5077475;28;20507;-72
2022/01/05 10:57:56;;;;;;;10.90;2.87;;;7.40;79.40;;;;;;5089035;28;20055;-71
2022/01/05 11:00:44;;;;;;;11.80;2.42;;;7.40;79.60;;;;;;5078337;28;20043;-71
2022/01/05 11:03:24;;;;;;;11.60;3.03;;;7.40;79.60;;;;;;5078091;28;20090;-72
2022/01/05 11:06:14;;;;;;;13.33;2.93;;;7.50;79.70;;;;;;5076401;28;20036;-73
2022/01/05 11:08:56;;;;;;;11.90;2.67;;;7.50;79.70;;;;;;5075584;28;20029;-72
2022/01/05 11:11:42;;;;;;;9.98;2.95;;;7.60;79.70;;;;;;5075860;28;20060;-71
2022/01/05 11:14:09;;;;;;;12.23;2.83;;;7.60;79.70;;;;;;5076578;28;20029;-72
2022/01/05 11:16:37;;;;;;;12.97;2.87;;;7.60;79.80;;;;;;5074497;28;20101;-72
2022/01/05 11:19:18;;;;;;;14.23;2.87;;;7.60;80.60;;;;;;5075975;28;20024;-72
2022/01/05 11:22:11;;;;;;;12.23;3.07;;;7.60;80.00;;;;;;5058191;28;20077;-75
2022/01/05 11:24:46;;;;;;;11.50;2.70;;;7.60;80.10;;;;;;5076664;28;20111;-74
2022/01/05 11:27:14;;;;;;;12.63;2.53;;;7.70;80.10;;;;;;5074004;28;20119;-73
2022/01/05 11:29:41;;;;;;;10.33;2.23;;;7.70;80.10;;;;;;5075005;28;20361;-75
2022/01/05 11:32:09;;;;;;;13.23;1.83;;;7.80;80.10;;;;;;5073494;28;20102;-72
2022/01/05 11:34:36;;;;;;;7.70;2.07;;;7.80;80.00;;;;;;5072916;28;20052;-74
2022/01/05 11:37:02;;;;;;;10.33;2.23;;;7.90;80.00;;;;;;5056971;28;20035;-74
2022/01/05 11:39:34;;;;;;;12.43;2.53;;;7.90;80.00;;;;;;5075388;28;20107;-75
2022/01/05 11:42:06;;;;;;;12.77;2.63;;;8.00;80.00;;;;;;5056615;28;20024;-74
2022/01/05 11:44:51;;;;;;;9.98;2.35;;;8.00;80.00;;;;;;5055009;28;20033;-76
2022/01/05 11:47:40;;;;;;;10.03;2.13;;;8.00;80.10;;;;;;5069364;28;20036;-77
2022/01/05 11:50:27;;;;;;;11.57;3.03;;;8.00;80.20;;;;;;5070116;28;20028;-74
2022/01/05 11:52:55;;;;;;;8.32;2.10;;;7.90;80.10;;;;;;5075319;28;20025;-74
2022/01/05 11:55:20;;;;;;;12.20;2.22;;;7.90;80.20;;;;;;5061966;28;20055;-74
2022/01/05 11:58:21;;;;;;;7.50;1.95;;;8.00;80.20;;;;;;5073392;28;20410;-75
2022/01/05 12:01:13;;;;;;;10.35;2.47;;;8.00;80.20;;;;;;5056079;28;20086;-75
2022/01/05 12:03:51;;;;;;;11.13;2.47;;;8.00;80.10;;;;;;5072899;28;20028;-76
2022/01/05 12:06:19;;;;;;;8.07;1.90;;;8.00;80.20;;;;;;5054190;28;20124;-80
2022/01/05 12:08:47;;;;;;;6.90;2.17;;;8.00;80.20;;;;;;5072452;28;20028;-75
2022/01/05 12:11:33;;;;;;;7.90;1.83;;;8.00;80.30;;;;;;5056202;28;20043;-77
2022/01/05 12:14:04;;;;;;;11.43;2.55;;;8.10;80.40;;;;;;5072810;28;20040;-74
2022/01/05 12:16:50;;;;;;;7.50;2.13;;;8.10;80.40;;;;;;5072008;28;20016;-74
2022/01/05 12:19:15;;;;;;;14.02;2.97;;;8.10;80.30;;;;;;5053175;28;20060;-73
2022/01/05 12:21:50;;;;;;;12.32;2.72;;;8.10;80.30;;;;;;5055978;28;20151;-75
2022/01/05 12:24:16;;;;;;;10.23;2.30;;;8.10;80.50;;;;;;5072177;28;20111;-74
2022/01/05 12:26:45;;;;;;;7.80;2.08;;;8.10;80.50;;;;;;5071455;28;20035;-74
2022/01/05 12:29:11;;;;;;;9.38;2.67;;;8.10;80.50;;;;;;5072181;28;20035;-74
2022/01/05 12:31:58;;;;;;;10.48;2.35;;;8.10;80.60;;;;;;5052379;28;20117;-74
2022/01/05 12:34:56;;;;;;;9.23;2.70;;;8.10;80.70;;;;;;5085570;28;20056;-75
2022/01/05 12:37:47;;;;;;;11.93;3.00;;;8.10;80.70;;;;;;5071507;28;20029;-75
2022/01/05 12:40:31;;;;;;;15.15;2.63;;;8.20;80.80;;;;;;5071556;28;20025;-75
2022/01/05 12:43:06;;;;;;;12.07;2.63;;;8.20;80.70;;;;;;5070987;28;20032;-74
2022/01/05 12:45:43;;;;;;;12.70;3.13;;;8.20;80.80;;;;;;5071580;28;20063;-75
2022/01/05 12:48:31;;;;;;;11.63;2.13;;;8.20;80.90;;;;;;5070880;28;20033;-75
2022/01/05 12:51:18;;;;;;;9.00;2.37;;;8.30;80.90;;;;;;5054519;28;20036;-74
2022/01/05 12:53:51;;;;;;;14.87;3.10;;;8.30;80.80;;;;;;5073901;28;20028;-74
2022/01/05 12:56:24;;;;;;;10.63;2.22;;;8.30;80.80;;;;;;5057074;28;20034;-74
2022/01/05 12:58:51;;;;;;;14.50;2.90;;;8.40;80.80;;;;;;5073459;28;20033;-74